sensor_id;sensor_type;location;lat;lon;timestamp;temperature;humidity
7654;DHT22;3869;48.406;10.774;2023-07-09T00:01:28;19.20;99.90
7654;DHT22;3869;48.406;10.774;2023-07-09T00:03:56;19.20;99.90
7654;DHT22;3869;48.406;10.774;2023-07-09T00:06:24;19.00;99.90
7654;DHT22;3869;48.406;10.774;2023-07-09T00:08:52;18.90;99.90
7654;DHT22;3869;48.406;10.774;2023-07-09T00:11:20;18.80;99.90
7654;DHT22;3869;48.406;10.774;2023-07-09T00:13:49;18.80;99.90
7654;DHT22;3869;48.406;10.774;2023-07-09T00:16:21;18.90;99.90
7654;DHT22;3869;48.406;10.774;2023-07-09T00:18:52;18.90;99.90
7654;DHT22;3869;48.406;10.774;2023-07-09T00:21:21;18.90;99.90
7654;DHT22;3869;48.406;10.774;2023-07-09T00:23:51;18.80;99.90
7654;DHT22;3869;48.406;10.774;2023-07-09T00:26:19;18.70;99.90
7654;DHT22;3869;48.406;10.774;2023-07-09T00:28:50;18.80;99.90
7654;DHT22;3869;48.406;10.774;2023-07-09T00:31:18;18.80;99.90
7654;DHT22;3869;48.406;10.774;2023-07-09T00:33:46;18.80;99.90
7654;DHT22;3869;48.406;10.774;2023-07-09T00:36:18;18.70;99.90
7654;DHT22;3869;48.406;10.774;2023-07-09T00:38:46;18.70;99.90
7654;DHT22;3869;48.406;10.774;2023-07-09T00:41:17;18.70;99.90
7654;DHT22;3869;48.406;10.774;2023-07-09T00:43:47;18.70;99.90
7654;DHT22;3869;48.406;10.774;2023-07-09T00:49:28;18.70;99.90
7654;DHT22;3869;48.406;10.774;2023-07-09T00:52:00;18.60;99.90
7654;DHT22;3869;48.406;10.774;2023-07-09T00:54:33;18.50;99.90
7654;DHT22;3869;48.406;10.774;2023-07-09T00:57:07;18.40;99.90
7654;DHT22;3869;48.406;10.774;2023-07-09T00:59:37;18.40;99.90
7654;DHT22;3869;48.406;10.774;2023-07-09T01:02:07;18.40;99.90
7654;DHT22;3869;48.406;10.774;2023-07-09T01:04:35;18.40;99.90
7654;DHT22;3869;48.406;10.774;2023-07-09T01:07:10;18.40;99.90
7654;DHT22;3869;48.406;10.774;2023-07-09T01:09:38;18.40;99.90
7654;DHT22;3869;48.406;10.774;2023-07-09T01:12:09;18.40;99.90
7654;DHT22;3869;48.406;10.774;2023-07-09T01:14:38;18.40;99.90
7654;DHT22;3869;48.406;10.774;2023-07-09T01:17:07;18.40;99.90
7654;DHT22;3869;48.406;10.774;2023-07-09T01:19:40;18.40;99.90
7654;DHT22;3869;48.406;10.774;2023-07-09T01:22:14;18.40;99.90
7654;DHT22;3869;48.406;10.774;2023-07-09T01:24:57;18.40;99.90
7654;DHT22;3869;48.406;10.774;2023-07-09T01:27:32;18.50;99.90
7654;DHT22;3869;48.406;10.774;2023-07-09T01:30:03;18.40;99.90
7654;DHT22;3869;48.406;10.774;2023-07-09T01:32:33;18.30;99.90
7654;DHT22;3869;48.406;10.774;2023-07-09T01:35:03;18.30;99.90
7654;DHT22;3869;48.406;10.774;2023-07-09T01:37:36;18.20;99.90
7654;DHT22;3869;48.406;10.774;2023-07-09T01:40:08;18.20;99.90
7654;DHT22;3869;48.406;10.774;2023-07-09T01:42:56;18.20;99.90
7654;DHT22;3869;48.406;10.774;2023-07-09T01:45:25;18.20;99.90
7654;DHT22;3869;48.406;10.774;2023-07-09T01:47:54;18.30;99.90
7654;DHT22;3869;48.406;10.774;2023-07-09T01:50:23;18.20;99.90
7654;DHT22;3869;48.406;10.774;2023-07-09T01:52:55;18.20;99.90
7654;DHT22;3869;48.406;10.774;2023-07-09T01:55:24;18.10;99.90
7654;DHT22;3869;48.406;10.774;2023-07-09T01:57:52;18.00;99.90
7654;DHT22;3869;48.406;10.774;2023-07-09T02:00:20;18.00;99.90
7654;DHT22;3869;48.406;10.774;2023-07-09T02:02:48;18.00;99.90
7654;DHT22;3869;48.406;10.774;2023-07-09T02:05:18;18.00;99.90
7654;DHT22;3869;48.406;10.774;2023-07-09T02:07:47;18.10;99.90
7654;DHT22;3869;48.406;10.774;2023-07-09T02:10:17;18.10;99.90
7654;DHT22;3869;48.406;10.774;2023-07-09T02:12:46;18.10;99.90
7654;DHT22;3869;48.406;10.774;2023-07-09T02:15:15;18.00;99.90
7654;DHT22;3869;48.406;10.774;2023-07-09T02:17:43;18.00;99.90
7654;DHT22;3869;48.406;10.774;2023-07-09T02:20:12;18.00;99.90
7654;DHT22;3869;48.406;10.774;2023-07-09T02:22:41;18.00;99.90
7654;DHT22;3869;48.406;10.774;2023-07-09T02:25:09;17.90;99.90
7654;DHT22;3869;48.406;10.774;2023-07-09T02:27:39;17.90;99.90
7654;DHT22;3869;48.406;10.774;2023-07-09T02:30:07;17.90;99.90
7654;DHT22;3869;48.406;10.774;2023-07-09T02:32:37;17.90;99.90
7654;DHT22;3869;48.406;10.774;2023-07-09T02:35:07;17.90;99.90
7654;DHT22;3869;48.406;10.774;2023-07-09T02:37:35;17.80;99.90
7654;DHT22;3869;48.406;10.774;2023-07-09T02:40:04;17.90;99.90
7654;DHT22;3869;48.406;10.774;2023-07-09T02:42:33;17.90;99.90
7654;DHT22;3869;48.406;10.774;2023-07-09T02:45:04;17.80;99.90
7654;DHT22;3869;48.406;10.774;2023-07-09T02:47:32;17.80;99.90
7654;DHT22;3869;48.406;10.774;2023-07-09T02:50:01;17.70;99.90
7654;DHT22;3869;48.406;10.774;2023-07-09T02:52:29;17.70;99.90
7654;DHT22;3869;48.406;10.774;2023-07-09T02:54:57;17.70;99.90
7654;DHT22;3869;48.406;10.774;2023-07-09T02:57:26;17.70;99.90
7654;DHT22;3869;48.406;10.774;2023-07-09T02:59:54;17.70;99.90
7654;DHT22;3869;48.406;10.774;2023-07-09T03:02:23;17.70;99.90
7654;DHT22;3869;48.406;10.774;2023-07-09T03:04:51;17.70;99.90
7654;DHT22;3869;48.406;10.774;2023-07-09T03:07:19;17.70;99.90
7654;DHT22;3869;48.406;10.774;2023-07-09T03:09:47;17.70;99.90
7654;DHT22;3869;48.406;10.774;2023-07-09T03:12:15;17.70;99.90
7654;DHT22;3869;48.406;10.774;2023-07-09T03:14:43;17.60;99.90
7654;DHT22;3869;48.406;10.774;2023-07-09T03:17:12;17.60;99.90
7654;DHT22;3869;48.406;10.774;2023-07-09T03:19:41;17.60;99.90
7654;DHT22;3869;48.406;10.774;2023-07-09T03:22:09;17.50;99.90
7654;DHT22;3869;48.406;10.774;2023-07-09T03:24:37;17.50;99.90
7654;DHT22;3869;48.406;10.774;2023-07-09T03:27:06;17.50;99.90
7654;DHT22;3869;48.406;10.774;2023-07-09T03:29:34;17.50;99.90
7654;DHT22;3869;48.406;10.774;2023-07-09T03:32:02;17.50;99.90
7654;DHT22;3869;48.406;10.774;2023-07-09T03:34:30;17.50;99.90
7654;DHT22;3869;48.406;10.774;2023-07-09T03:37:00;17.40;99.90
7654;DHT22;3869;48.406;10.774;2023-07-09T03:39:28;17.30;99.90
7654;DHT22;3869;48.406;10.774;2023-07-09T03:41:56;17.30;99.90
7654;DHT22;3869;48.406;10.774;2023-07-09T03:44:24;17.30;99.90
7654;DHT22;3869;48.406;10.774;2023-07-09T03:46:52;17.30;99.90
7654;DHT22;3869;48.406;10.774;2023-07-09T03:49:21;17.30;99.90
7654;DHT22;3869;48.406;10.774;2023-07-09T03:51:48;17.40;99.90
7654;DHT22;3869;48.406;10.774;2023-07-09T03:54:18;17.40;99.90
7654;DHT22;3869;48.406;10.774;2023-07-09T03:56:46;17.40;99.90
7654;DHT22;3869;48.406;10.774;2023-07-09T03:59:14;17.40;99.90
7654;DHT22;3869;48.406;10.774;2023-07-09T04:01:42;17.40;99.90
7654;DHT22;3869;48.406;10.774;2023-07-09T04:04:13;17.30;99.90
7654;DHT22;3869;48.406;10.774;2023-07-09T04:06:41;17.30;99.90
7654;DHT22;3869;48.406;10.774;2023-07-09T04:09:09;17.30;99.90
7654;DHT22;3869;48.406;10.774;2023-07-09T04:11:39;17.30;99.90
7654;DHT22;3869;48.406;10.774;2023-07-09T04:14:06;17.40;99.90
7654;DHT22;3869;48.406;10.774;2023-07-09T04:16:35;17.40;99.90
7654;DHT22;3869;48.406;10.774;2023-07-09T04:19:03;17.40;99.90
7654;DHT22;3869;48.406;10.774;2023-07-09T04:21:31;17.30;99.90
7654;DHT22;3869;48.406;10.774;2023-07-09T04:23:58;17.30;99.90
7654;DHT22;3869;48.406;10.774;2023-07-09T04:26:26;17.40;99.90
7654;DHT22;3869;48.406;10.774;2023-07-09T04:28:56;17.50;99.90
7654;DHT22;3869;48.406;10.774;2023-07-09T04:31:24;17.50;99.90
7654;DHT22;3869;48.406;10.774;2023-07-09T04:33:52;17.50;99.90
7654;DHT22;3869;48.406;10.774;2023-07-09T04:36:20;17.60;99.90
7654;DHT22;3869;48.406;10.774;2023-07-09T04:38:48;17.60;99.90
7654;DHT22;3869;48.406;10.774;2023-07-09T04:41:16;17.40;99.90
7654;DHT22;3869;48.406;10.774;2023-07-09T04:43:44;17.60;99.90
7654;DHT22;3869;48.406;10.774;2023-07-09T04:46:13;17.60;99.90
7654;DHT22;3869;48.406;10.774;2023-07-09T04:48:41;17.60;99.90
7654;DHT22;3869;48.406;10.774;2023-07-09T04:51:10;17.70;99.90
7654;DHT22;3869;48.406;10.774;2023-07-09T04:53:37;17.70;99.90
7654;DHT22;3869;48.406;10.774;2023-07-09T04:56:05;17.80;99.90
7654;DHT22;3869;48.406;10.774;2023-07-09T04:58:34;17.90;99.90
7654;DHT22;3869;48.406;10.774;2023-07-09T05:01:02;17.90;99.90
7654;DHT22;3869;48.406;10.774;2023-07-09T05:03:31;17.90;99.90
7654;DHT22;3869;48.406;10.774;2023-07-09T05:05:59;18.00;99.90
7654;DHT22;3869;48.406;10.774;2023-07-09T05:08:28;18.10;99.90
7654;DHT22;3869;48.406;10.774;2023-07-09T05:10:57;18.20;99.90
7654;DHT22;3869;48.406;10.774;2023-07-09T05:13:25;18.20;99.90
7654;DHT22;3869;48.406;10.774;2023-07-09T05:15:54;18.30;99.90
7654;DHT22;3869;48.406;10.774;2023-07-09T05:18:22;18.40;99.90
7654;DHT22;3869;48.406;10.774;2023-07-09T05:20:52;18.50;99.90
7654;DHT22;3869;48.406;10.774;2023-07-09T05:23:20;18.60;99.90
7654;DHT22;3869;48.406;10.774;2023-07-09T05:25:48;18.70;99.90
7654;DHT22;3869;48.406;10.774;2023-07-09T05:28:15;18.80;99.90
7654;DHT22;3869;48.406;10.774;2023-07-09T05:30:43;18.90;99.90
7654;DHT22;3869;48.406;10.774;2023-07-09T05:33:11;18.90;99.90
7654;DHT22;3869;48.406;10.774;2023-07-09T05:35:39;19.00;99.90
7654;DHT22;3869;48.406;10.774;2023-07-09T05:38:11;19.10;99.90
7654;DHT22;3869;48.406;10.774;2023-07-09T05:40:39;19.10;99.90
7654;DHT22;3869;48.406;10.774;2023-07-09T05:43:07;19.20;99.90
7654;DHT22;3869;48.406;10.774;2023-07-09T05:45:36;19.30;99.90
7654;DHT22;3869;48.406;10.774;2023-07-09T05:48:06;19.40;99.90
7654;DHT22;3869;48.406;10.774;2023-07-09T05:50:35;19.50;99.90
7654;DHT22;3869;48.406;10.774;2023-07-09T05:53:03;19.60;99.90
7654;DHT22;3869;48.406;10.774;2023-07-09T05:55:32;19.70;99.90
7654;DHT22;3869;48.406;10.774;2023-07-09T05:58:00;19.70;99.90
7654;DHT22;3869;48.406;10.774;2023-07-09T06:00:28;19.80;99.90
7654;DHT22;3869;48.406;10.774;2023-07-09T06:02:56;19.80;99.90
7654;DHT22;3869;48.406;10.774;2023-07-09T06:05:24;19.90;99.90
7654;DHT22;3869;48.406;10.774;2023-07-09T06:07:52;19.90;99.90
7654;DHT22;3869;48.406;10.774;2023-07-09T06:10:21;20.00;99.90
7654;DHT22;3869;48.406;10.774;2023-07-09T06:12:50;20.10;99.90
7654;DHT22;3869;48.406;10.774;2023-07-09T06:15:19;20.20;99.90
7654;DHT22;3869;48.406;10.774;2023-07-09T06:17:47;20.30;99.90
7654;DHT22;3869;48.406;10.774;2023-07-09T06:20:15;20.50;99.90
7654;DHT22;3869;48.406;10.774;2023-07-09T06:22:43;20.60;99.90
7654;DHT22;3869;48.406;10.774;2023-07-09T06:25:12;20.70;99.90
7654;DHT22;3869;48.406;10.774;2023-07-09T06:27:40;20.80;99.90
7654;DHT22;3869;48.406;10.774;2023-07-09T06:30:10;20.80;99.90
7654;DHT22;3869;48.406;10.774;2023-07-09T06:32:38;20.90;99.90
7654;DHT22;3869;48.406;10.774;2023-07-09T06:35:07;21.00;99.90
7654;DHT22;3869;48.406;10.774;2023-07-09T06:37:35;21.10;99.90
7654;DHT22;3869;48.406;10.774;2023-07-09T06:40:04;21.20;99.90
7654;DHT22;3869;48.406;10.774;2023-07-09T06:42:35;21.30;99.90
7654;DHT22;3869;48.406;10.774;2023-07-09T06:45:04;21.40;99.90
7654;DHT22;3869;48.406;10.774;2023-07-09T06:47:34;21.40;99.90
7654;DHT22;3869;48.406;10.774;2023-07-09T06:50:02;21.60;99.90
7654;DHT22;3869;48.406;10.774;2023-07-09T06:52:30;21.60;99.90
7654;DHT22;3869;48.406;10.774;2023-07-09T06:54:58;21.70;99.90
7654;DHT22;3869;48.406;10.774;2023-07-09T06:57:26;21.80;99.90
7654;DHT22;3869;48.406;10.774;2023-07-09T06:59:54;21.90;99.90
7654;DHT22;3869;48.406;10.774;2023-07-09T07:02:22;22.00;99.90
7654;DHT22;3869;48.406;10.774;2023-07-09T07:04:52;22.10;99.90
7654;DHT22;3869;48.406;10.774;2023-07-09T07:07:20;22.30;99.90
7654;DHT22;3869;48.406;10.774;2023-07-09T07:09:48;22.40;99.90
7654;DHT22;3869;48.406;10.774;2023-07-09T07:12:25;22.50;99.90
7654;DHT22;3869;48.406;10.774;2023-07-09T07:14:53;22.60;99.90
7654;DHT22;3869;48.406;10.774;2023-07-09T07:17:21;22.70;99.90
7654;DHT22;3869;48.406;10.774;2023-07-09T07:19:51;22.80;99.90
7654;DHT22;3869;48.406;10.774;2023-07-09T07:22:19;22.90;99.90
7654;DHT22;3869;48.406;10.774;2023-07-09T07:24:47;23.00;99.90
7654;DHT22;3869;48.406;10.774;2023-07-09T07:27:15;23.00;99.90
7654;DHT22;3869;48.406;10.774;2023-07-09T07:29:43;23.10;99.90
7654;DHT22;3869;48.406;10.774;2023-07-09T07:32:12;23.20;99.90
7654;DHT22;3869;48.406;10.774;2023-07-09T07:34:40;23.30;99.90
7654;DHT22;3869;48.406;10.774;2023-07-09T07:37:09;23.30;99.90
7654;DHT22;3869;48.406;10.774;2023-07-09T07:39:38;23.40;99.90
7654;DHT22;3869;48.406;10.774;2023-07-09T07:42:07;23.50;99.90
7654;DHT22;3869;48.406;10.774;2023-07-09T07:44:35;23.50;99.90
7654;DHT22;3869;48.406;10.774;2023-07-09T07:47:04;23.60;99.90
7654;DHT22;3869;48.406;10.774;2023-07-09T07:49:32;23.70;99.90
7654;DHT22;3869;48.406;10.774;2023-07-09T07:52:00;23.70;99.90
7654;DHT22;3869;48.406;10.774;2023-07-09T07:54:31;23.80;99.90
7654;DHT22;3869;48.406;10.774;2023-07-09T07:56:59;23.90;99.90
7654;DHT22;3869;48.406;10.774;2023-07-09T07:59:27;23.90;99.90
7654;DHT22;3869;48.406;10.774;2023-07-09T08:01:55;24.00;99.90
7654;DHT22;3869;48.406;10.774;2023-07-09T08:04:23;24.00;99.90
7654;DHT22;3869;48.406;10.774;2023-07-09T08:06:52;24.10;99.90
7654;DHT22;3869;48.406;10.774;2023-07-09T08:09:20;24.20;99.90
7654;DHT22;3869;48.406;10.774;2023-07-09T08:11:50;24.30;99.60
7654;DHT22;3869;48.406;10.774;2023-07-09T08:14:18;24.50;99.80
7654;DHT22;3869;48.406;10.774;2023-07-09T08:16:46;24.60;99.50
7654;DHT22;3869;48.406;10.774;2023-07-09T08:19:18;24.60;99.10
7654;DHT22;3869;48.406;10.774;2023-07-09T08:21:46;24.70;98.70
7654;DHT22;3869;48.406;10.774;2023-07-09T08:24:14;24.80;98.80
7654;DHT22;3869;48.406;10.774;2023-07-09T08:26:42;25.00;98.80
7654;DHT22;3869;48.406;10.774;2023-07-09T08:29:12;25.20;98.60
7654;DHT22;3869;48.406;10.774;2023-07-09T08:31:40;25.30;98.60
7654;DHT22;3869;48.406;10.774;2023-07-09T08:34:08;25.40;98.30
7654;DHT22;3869;48.406;10.774;2023-07-09T08:36:36;25.50;98.30
7654;DHT22;3869;48.406;10.774;2023-07-09T08:39:05;25.60;97.30
7654;DHT22;3869;48.406;10.774;2023-07-09T08:41:39;25.70;97.80
7654;DHT22;3869;48.406;10.774;2023-07-09T08:44:28;25.90;98.00
7654;DHT22;3869;48.406;10.774;2023-07-09T08:47:02;26.00;97.20
7654;DHT22;3869;48.406;10.774;2023-07-09T08:49:41;26.10;96.70
7654;DHT22;3869;48.406;10.774;2023-07-09T08:52:15;26.10;96.50
7654;DHT22;3869;48.406;10.774;2023-07-09T08:54:46;26.20;96.30
7654;DHT22;3869;48.406;10.774;2023-07-09T08:57:19;26.30;96.50
7654;DHT22;3869;48.406;10.774;2023-07-09T08:59:50;26.40;96.00
7654;DHT22;3869;48.406;10.774;2023-07-09T09:02:28;26.50;96.40
7654;DHT22;3869;48.406;10.774;2023-07-09T09:04:58;26.50;95.90
7654;DHT22;3869;48.406;10.774;2023-07-09T09:07:36;26.50;95.50
7654;DHT22;3869;48.406;10.774;2023-07-09T09:10:07;26.50;95.60
7654;DHT22;3869;48.406;10.774;2023-07-09T09:12:43;26.40;95.20
7654;DHT22;3869;48.406;10.774;2023-07-09T09:15:17;26.50;95.40
7654;DHT22;3869;48.406;10.774;2023-07-09T09:17:45;26.60;94.10
7654;DHT22;3869;48.406;10.774;2023-07-09T09:20:20;26.70;92.50
7654;DHT22;3869;48.406;10.774;2023-07-09T09:22:57;26.80;92.20
7654;DHT22;3869;48.406;10.774;2023-07-09T09:25:29;26.90;92.40
7654;DHT22;3869;48.406;10.774;2023-07-09T09:28:00;27.00;91.80
7654;DHT22;3869;48.406;10.774;2023-07-09T09:30:30;27.10;91.60
7654;DHT22;3869;48.406;10.774;2023-07-09T09:33:02;27.20;91.60
7654;DHT22;3869;48.406;10.774;2023-07-09T09:35:37;27.30;91.40
7654;DHT22;3869;48.406;10.774;2023-07-09T09:38:11;27.50;91.80
7654;DHT22;3869;48.406;10.774;2023-07-09T09:40:39;27.50;92.40
7654;DHT22;3869;48.406;10.774;2023-07-09T09:43:13;27.60;92.00
7654;DHT22;3869;48.406;10.774;2023-07-09T09:45:44;27.60;91.40
7654;DHT22;3869;48.406;10.774;2023-07-09T09:48:18;27.60;90.90
7654;DHT22;3869;48.406;10.774;2023-07-09T09:50:47;27.70;90.50
7654;DHT22;3869;48.406;10.774;2023-07-09T09:53:20;27.80;90.70
7654;DHT22;3869;48.406;10.774;2023-07-09T09:55:48;27.80;91.00
7654;DHT22;3869;48.406;10.774;2023-07-09T09:58:19;27.90;90.10
7654;DHT22;3869;48.406;10.774;2023-07-09T10:00:51;27.90;90.40
7654;DHT22;3869;48.406;10.774;2023-07-09T10:03:19;28.00;90.80
7654;DHT22;3869;48.406;10.774;2023-07-09T10:05:52;28.10;91.40
7654;DHT22;3869;48.406;10.774;2023-07-09T10:08:31;28.20;91.40
7654;DHT22;3869;48.406;10.774;2023-07-09T10:11:08;28.10;89.30
7654;DHT22;3869;48.406;10.774;2023-07-09T10:13:42;28.10;90.30
7654;DHT22;3869;48.406;10.774;2023-07-09T10:16:18;28.20;90.20
7654;DHT22;3869;48.406;10.774;2023-07-09T10:18:53;28.30;89.40
7654;DHT22;3869;48.406;10.774;2023-07-09T10:21:28;28.40;89.40
7654;DHT22;3869;48.406;10.774;2023-07-09T10:24:11;28.60;88.70
7654;DHT22;3869;48.406;10.774;2023-07-09T10:26:45;28.80;88.50
7654;DHT22;3869;48.406;10.774;2023-07-09T10:32:15;28.90;84.40
7654;DHT22;3869;48.406;10.774;2023-07-09T10:34:53;29.00;84.90
7654;DHT22;3869;48.406;10.774;2023-07-09T10:37:48;29.00;85.00
7654;DHT22;3869;48.406;10.774;2023-07-09T10:40:25;29.10;83.00
7654;DHT22;3869;48.406;10.774;2023-07-09T10:42:59;29.10;81.50
7654;DHT22;3869;48.406;10.774;2023-07-09T10:45:30;29.20;81.70
7654;DHT22;3869;48.406;10.774;2023-07-09T10:48:04;29.30;80.20
7654;DHT22;3869;48.406;10.774;2023-07-09T10:50:36;29.30;78.90
7654;DHT22;3869;48.406;10.774;2023-07-09T10:53:10;29.40;78.50
7654;DHT22;3869;48.406;10.774;2023-07-09T10:55:43;29.40;78.70
7654;DHT22;3869;48.406;10.774;2023-07-09T10:58:22;29.50;79.20
7654;DHT22;3869;48.406;10.774;2023-07-09T11:00:53;29.60;79.00
7654;DHT22;3869;48.406;10.774;2023-07-09T11:03:31;29.60;77.10
7654;DHT22;3869;48.406;10.774;2023-07-09T11:06:03;29.60;75.60
7654;DHT22;3869;48.406;10.774;2023-07-09T11:08:35;29.60;76.20
7654;DHT22;3869;48.406;10.774;2023-07-09T11:11:08;29.80;78.20
7654;DHT22;3869;48.406;10.774;2023-07-09T11:13:41;29.80;79.40
7654;DHT22;3869;48.406;10.774;2023-07-09T11:16:25;29.90;77.10
7654;DHT22;3869;48.406;10.774;2023-07-09T11:18:59;30.00;79.10
7654;DHT22;3869;48.406;10.774;2023-07-09T11:21:28;30.00;73.00
7654;DHT22;3869;48.406;10.774;2023-07-09T11:23:58;30.00;72.70
7654;DHT22;3869;48.406;10.774;2023-07-09T11:26:28;30.10;73.80
7654;DHT22;3869;48.406;10.774;2023-07-09T11:29:15;30.00;70.50
7654;DHT22;3869;48.406;10.774;2023-07-09T11:31:44;30.10;72.30
7654;DHT22;3869;48.406;10.774;2023-07-09T11:34:19;30.30;74.10
7654;DHT22;3869;48.406;10.774;2023-07-09T11:36:50;30.40;75.30
7654;DHT22;3869;48.406;10.774;2023-07-09T11:39:21;30.50;75.80
7654;DHT22;3869;48.406;10.774;2023-07-09T11:41:49;30.50;73.90
7654;DHT22;3869;48.406;10.774;2023-07-09T11:44:19;30.50;73.30
7654;DHT22;3869;48.406;10.774;2023-07-09T11:46:55;30.50;73.00
7654;DHT22;3869;48.406;10.774;2023-07-09T11:49:30;30.50;73.40
7654;DHT22;3869;48.406;10.774;2023-07-09T11:52:05;30.60;75.70
7654;DHT22;3869;48.406;10.774;2023-07-09T11:54:34;30.70;77.90
7654;DHT22;3869;48.406;10.774;2023-07-09T11:57:02;30.80;77.80
7654;DHT22;3869;48.406;10.774;2023-07-09T11:59:30;30.90;75.00
7654;DHT22;3869;48.406;10.774;2023-07-09T12:02:05;31.00;71.70
7654;DHT22;3869;48.406;10.774;2023-07-09T12:04:38;31.20;72.30
7654;DHT22;3869;48.406;10.774;2023-07-09T12:07:09;31.30;70.40
7654;DHT22;3869;48.406;10.774;2023-07-09T12:09:43;31.20;68.50
7654;DHT22;3869;48.406;10.774;2023-07-09T12:12:21;31.20;69.90
7654;DHT22;3869;48.406;10.774;2023-07-09T12:14:49;31.30;71.70
7654;DHT22;3869;48.406;10.774;2023-07-09T12:17:18;31.30;73.40
7654;DHT22;3869;48.406;10.774;2023-07-09T12:19:47;31.40;75.70
7654;DHT22;3869;48.406;10.774;2023-07-09T12:22:20;31.50;77.60
7654;DHT22;3869;48.406;10.774;2023-07-09T12:24:50;31.60;77.40
7654;DHT22;3869;48.406;10.774;2023-07-09T12:27:21;31.60;77.90
7654;DHT22;3869;48.406;10.774;2023-07-09T12:29:53;31.70;76.10
7654;DHT22;3869;48.406;10.774;2023-07-09T12:32:21;31.70;74.40
7654;DHT22;3869;48.406;10.774;2023-07-09T12:34:56;31.80;73.40
7654;DHT22;3869;48.406;10.774;2023-07-09T12:37:25;31.70;71.10
7654;DHT22;3869;48.406;10.774;2023-07-09T12:39:55;31.80;72.30
7654;DHT22;3869;48.406;10.774;2023-07-09T12:42:29;31.80;71.60
7654;DHT22;3869;48.406;10.774;2023-07-09T12:44:58;31.80;71.20
7654;DHT22;3869;48.406;10.774;2023-07-09T12:47:26;31.80;70.20
7654;DHT22;3869;48.406;10.774;2023-07-09T12:50:08;31.80;69.20
7654;DHT22;3869;48.406;10.774;2023-07-09T12:52:45;31.80;68.80
7654;DHT22;3869;48.406;10.774;2023-07-09T12:55:22;31.80;69.00
7654;DHT22;3869;48.406;10.774;2023-07-09T12:57:54;31.80;68.90
7654;DHT22;3869;48.406;10.774;2023-07-09T13:00:25;31.80;68.30
7654;DHT22;3869;48.406;10.774;2023-07-09T13:02:55;31.90;68.40
7654;DHT22;3869;48.406;10.774;2023-07-09T13:05:26;31.80;65.70
7654;DHT22;3869;48.406;10.774;2023-07-09T13:07:58;31.80;67.20
7654;DHT22;3869;48.406;10.774;2023-07-09T13:10:28;31.80;66.50
7654;DHT22;3869;48.406;10.774;2023-07-09T13:13:01;31.80;67.70
7654;DHT22;3869;48.406;10.774;2023-07-09T13:15:31;31.90;67.30
7654;DHT22;3869;48.406;10.774;2023-07-09T13:18:09;31.90;64.90
7654;DHT22;3869;48.406;10.774;2023-07-09T13:20:40;31.80;62.60
7654;DHT22;3869;48.406;10.774;2023-07-09T13:23:10;31.80;63.10
7654;DHT22;3869;48.406;10.774;2023-07-09T13:25:39;31.80;64.20
7654;DHT22;3869;48.406;10.774;2023-07-09T13:28:18;31.80;62.60
7654;DHT22;3869;48.406;10.774;2023-07-09T13:30:48;31.80;61.50
7654;DHT22;3869;48.406;10.774;2023-07-09T13:33:16;31.90;65.30
7654;DHT22;3869;48.406;10.774;2023-07-09T13:35:46;32.00;63.90
7654;DHT22;3869;48.406;10.774;2023-07-09T13:38:17;32.00;64.60
7654;DHT22;3869;48.406;10.774;2023-07-09T13:40:48;32.00;64.80
7654;DHT22;3869;48.406;10.774;2023-07-09T13:43:19;32.10;66.00
7654;DHT22;3869;48.406;10.774;2023-07-09T13:45:47;32.00;64.80
7654;DHT22;3869;48.406;10.774;2023-07-09T13:48:17;32.00;63.70
7654;DHT22;3869;48.406;10.774;2023-07-09T13:50:50;32.00;63.20
7654;DHT22;3869;48.406;10.774;2023-07-09T13:53:22;32.00;63.10
7654;DHT22;3869;48.406;10.774;2023-07-09T13:55:51;31.90;62.20
7654;DHT22;3869;48.406;10.774;2023-07-09T13:58:21;31.80;61.80
7654;DHT22;3869;48.406;10.774;2023-07-09T14:00:53;31.80;61.10
7654;DHT22;3869;48.406;10.774;2023-07-09T14:03:24;31.80;61.30
7654;DHT22;3869;48.406;10.774;2023-07-09T14:05:54;31.80;61.90
7654;DHT22;3869;48.406;10.774;2023-07-09T14:08:22;31.90;63.30
7654;DHT22;3869;48.406;10.774;2023-07-09T14:10:50;31.90;63.10
7654;DHT22;3869;48.406;10.774;2023-07-09T14:13:21;32.00;63.80
7654;DHT22;3869;48.406;10.774;2023-07-09T14:15:49;32.00;61.80
7654;DHT22;3869;48.406;10.774;2023-07-09T14:18:20;32.10;64.20
7654;DHT22;3869;48.406;10.774;2023-07-09T14:20:49;32.10;64.50
7654;DHT22;3869;48.406;10.774;2023-07-09T14:23:19;32.10;65.50
7654;DHT22;3869;48.406;10.774;2023-07-09T14:25:48;32.20;66.00
7654;DHT22;3869;48.406;10.774;2023-07-09T14:28:17;32.10;62.90
7654;DHT22;3869;48.406;10.774;2023-07-09T14:30:46;32.00;61.70
7654;DHT22;3869;48.406;10.774;2023-07-09T14:33:17;32.00;62.10
7654;DHT22;3869;48.406;10.774;2023-07-09T14:35:47;31.90;62.20
7654;DHT22;3869;48.406;10.774;2023-07-09T14:38:17;31.90;63.50
7654;DHT22;3869;48.406;10.774;2023-07-09T14:40:49;31.90;62.30
7654;DHT22;3869;48.406;10.774;2023-07-09T14:43:17;31.90;63.90
7654;DHT22;3869;48.406;10.774;2023-07-09T14:45:45;31.90;65.80
7654;DHT22;3869;48.406;10.774;2023-07-09T14:48:15;32.00;66.00
7654;DHT22;3869;48.406;10.774;2023-07-09T14:50:43;32.00;66.80
7654;DHT22;3869;48.406;10.774;2023-07-09T14:53:16;32.00;65.80
7654;DHT22;3869;48.406;10.774;2023-07-09T14:55:44;32.00;66.50
7654;DHT22;3869;48.406;10.774;2023-07-09T14:58:16;32.00;64.60
7654;DHT22;3869;48.406;10.774;2023-07-09T15:00:45;32.00;64.20
7654;DHT22;3869;48.406;10.774;2023-07-09T15:03:18;31.90;65.50
7654;DHT22;3869;48.406;10.774;2023-07-09T15:05:47;31.90;64.20
7654;DHT22;3869;48.406;10.774;2023-07-09T15:08:16;31.90;65.00
7654;DHT22;3869;48.406;10.774;2023-07-09T15:10:45;31.90;66.60
7654;DHT22;3869;48.406;10.774;2023-07-09T15:13:21;31.80;64.30
7654;DHT22;3869;48.406;10.774;2023-07-09T15:15:51;31.70;61.10
7654;DHT22;3869;48.406;10.774;2023-07-09T15:18:19;31.70;62.70
7654;DHT22;3869;48.406;10.774;2023-07-09T15:20:49;31.80;64.00
7654;DHT22;3869;48.406;10.774;2023-07-09T15:23:18;31.70;64.10
7654;DHT22;3869;48.406;10.774;2023-07-09T15:25:49;31.80;65.90
7654;DHT22;3869;48.406;10.774;2023-07-09T15:28:19;31.70;66.50
7654;DHT22;3869;48.406;10.774;2023-07-09T15:30:47;31.70;64.90
7654;DHT22;3869;48.406;10.774;2023-07-09T15:33:17;31.60;60.80
7654;DHT22;3869;48.406;10.774;2023-07-09T15:35:46;31.50;61.00
7654;DHT22;3869;48.406;10.774;2023-07-09T15:38:28;31.50;61.50
7654;DHT22;3869;48.406;10.774;2023-07-09T15:40:57;31.50;63.60
7654;DHT22;3869;48.406;10.774;2023-07-09T15:43:28;31.50;63.20
7654;DHT22;3869;48.406;10.774;2023-07-09T15:45:56;31.40;65.20
7654;DHT22;3869;48.406;10.774;2023-07-09T15:48:27;31.30;65.10
7654;DHT22;3869;48.406;10.774;2023-07-09T15:50:55;31.20;64.30
7654;DHT22;3869;48.406;10.774;2023-07-09T15:53:25;31.20;63.10
7654;DHT22;3869;48.406;10.774;2023-07-09T15:55:57;31.20;62.40
7654;DHT22;3869;48.406;10.774;2023-07-09T15:58:31;31.10;62.50
7654;DHT22;3869;48.406;10.774;2023-07-09T16:01:03;31.10;63.40
7654;DHT22;3869;48.406;10.774;2023-07-09T16:03:32;31.10;63.70
7654;DHT22;3869;48.406;10.774;2023-07-09T16:06:01;31.20;63.60
7654;DHT22;3869;48.406;10.774;2023-07-09T16:08:29;31.20;63.00
7654;DHT22;3869;48.406;10.774;2023-07-09T16:10:59;31.20;64.90